sensor_id;sensor_type;location;lat;lon;timestamp;P1;durP1;ratioP1;P2;durP2;ratioP2
32535;SDS011;18974;50.838;4.636;2022-09-30T00:01:21;18.05;;;11.32;;
32535;SDS011;18974;50.838;4.636;2022-09-30T00:03:49;17.08;;;11.73;;
32535;SDS011;18974;50.838;4.636;2022-09-30T00:06:15;16.65;;;11.45;;
32535;SDS011;18974;50.838;4.636;2022-09-30T00:08:41;21.63;;;12.10;;
32535;SDS011;18974;50.838;4.636;2022-09-30T00:11:11;19.42;;;11.52;;
32535;SDS011;18974;50.838;4.636;2022-09-30T00:13:42;21.30;;;12.30;;
32535;SDS011;18974;50.838;4.636;2022-09-30T00:16:15;20.85;;;12.73;;
32535;SDS011;18974;50.838;4.636;2022-09-30T00:18:42;18.88;;;11.82;;
32535;SDS011;18974;50.838;4.636;2022-09-30T00:21:08;18.33;;;11.52;;
32535;SDS011;18974;50.838;4.636;2022-09-30T00:23:35;22.15;;;11.43;;
32535;SDS011;18974;50.838;4.636;2022-09-30T00:26:03;20.35;;;11.85;;
32535;SDS011;18974;50.838;4.636;2022-09-30T00:28:34;22.00;;;11.00;;
32535;SDS011;18974;50.838;4.636;2022-09-30T00:31:00;16.52;;;10.68;;
32535;SDS011;18974;50.838;4.636;2022-09-30T00:33:29;19.42;;;11.10;;
32535;SDS011;18974;50.838;4.636;2022-09-30T00:35:55;20.23;;;9.68;;
32535;SDS011;18974;50.838;4.636;2022-09-30T00:38:21;18.48;;;10.50;;
32535;SDS011;18974;50.838;4.636;2022-09-30T00:40:47;16.48;;;10.15;;
32535;SDS011;18974;50.838;4.636;2022-09-30T00:43:14;19.52;;;10.18;;
32535;SDS011;18974;50.838;4.636;2022-09-30T00:45:53;19.23;;;11.00;;
32535;SDS011;18974;50.838;4.636;2022-09-30T00:48:30;18.55;;;11.20;;
32535;SDS011;18974;50.838;4.636;2022-09-30T00:51:00;21.80;;;10.25;;
32535;SDS011;18974;50.838;4.636;2022-09-30T00:53:30;19.73;;;11.25;;
32535;SDS011;18974;50.838;4.636;2022-09-30T00:56:08;22.52;;;12.25;;
32535;SDS011;18974;50.838;4.636;2022-09-30T00:58:40;19.70;;;11.57;;
32535;SDS011;18974;50.838;4.636;2022-09-30T01:01:14;22.92;;;12.25;;
32535;SDS011;18974;50.838;4.636;2022-09-30T01:03:42;19.00;;;12.35;;
32535;SDS011;18974;50.838;4.636;2022-09-30T01:06:14;20.00;;;12.32;;
32535;SDS011;18974;50.838;4.636;2022-09-30T01:08:41;20.25;;;12.50;;
32535;SDS011;18974;50.838;4.636;2022-09-30T01:11:09;19.33;;;12.23;;
32535;SDS011;18974;50.838;4.636;2022-09-30T01:13:35;23.10;;;12.35;;
32535;SDS011;18974;50.838;4.636;2022-09-30T01:40:46;25.08;;;13.75;;
32535;SDS011;18974;50.838;4.636;2022-09-30T01:49:00;20.92;;;13.02;;
32535;SDS011;18974;50.838;4.636;2022-09-30T01:52:24;20.50;;;8.95;;
32535;SDS011;18974;50.838;4.636;2022-09-30T01:54:41;23.88;;;13.13;;
32535;SDS011;18974;50.838;4.636;2022-09-30T01:57:21;20.35;;;12.95;;
32535;SDS011;18974;50.838;4.636;2022-09-30T01:59:59;23.52;;;13.45;;
32535;SDS011;18974;50.838;4.636;2022-09-30T02:02:31;24.45;;;12.70;;
32535;SDS011;18974;50.838;4.636;2022-09-30T02:07:50;26.48;;;13.52;;
32535;SDS011;18974;50.838;4.636;2022-09-30T02:10:27;22.70;;;14.10;;
32535;SDS011;18974;50.838;4.636;2022-09-30T02:12:59;25.73;;;13.38;;
32535;SDS011;18974;50.838;4.636;2022-09-30T02:15:35;23.55;;;12.65;;
32535;SDS011;18974;50.838;4.636;2022-09-30T02:18:09;25.90;;;12.73;;
32535;SDS011;18974;50.838;4.636;2022-09-30T02:20:37;20.02;;;12.15;;
32535;SDS011;18974;50.838;4.636;2022-09-30T02:25:36;22.58;;;12.48;;
32535;SDS011;18974;50.838;4.636;2022-09-30T02:28:09;18.75;;;10.93;;
32535;SDS011;18974;50.838;4.636;2022-09-30T02:30:40;18.50;;;11.68;;
32535;SDS011;18974;50.838;4.636;2022-09-30T02:33:15;22.25;;;11.85;;
32535;SDS011;18974;50.838;4.636;2022-09-30T02:35:48;17.77;;;11.88;;
32535;SDS011;18974;50.838;4.636;2022-09-30T02:38:24;20.27;;;11.88;;
32535;SDS011;18974;50.838;4.636;2022-09-30T02:41:01;19.00;;;11.60;;
32535;SDS011;18974;50.838;4.636;2022-09-30T02:43:31;22.33;;;12.48;;
32535;SDS011;18974;50.838;4.636;2022-09-30T02:56:37;22.50;;;12.82;;
32535;SDS011;18974;50.838;4.636;2022-09-30T02:59:33;22.90;;;12.57;;
32535;SDS011;18974;50.838;4.636;2022-09-30T03:01:58;28.08;;;13.40;;
32535;SDS011;18974;50.838;4.636;2022-09-30T03:04:25;25.92;;;14.10;;
32535;SDS011;18974;50.838;4.636;2022-09-30T03:06:53;25.15;;;13.90;;
32535;SDS011;18974;50.838;4.636;2022-09-30T03:09:23;25.23;;;12.95;;
32535;SDS011;18974;50.838;4.636;2022-09-30T03:11:50;24.20;;;12.35;;
32535;SDS011;18974;50.838;4.636;2022-09-30T03:17:11;27.23;;;12.88;;
32535;SDS011;18974;50.838;4.636;2022-09-30T03:27:55;30.27;;;14.93;;
32535;SDS011;18974;50.838;4.636;2022-09-30T03:30:55;24.23;;;13.98;;
32535;SDS011;18974;50.838;4.636;2022-09-30T03:33:46;27.77;;;13.90;;
32535;SDS011;18974;50.838;4.636;2022-09-30T03:39:10;25.65;;;14.50;;
32535;SDS011;18974;50.838;4.636;2022-09-30T03:41:32;26.67;;;14.50;;
32535;SDS011;18974;50.838;4.636;2022-09-30T03:46:50;22.73;;;13.30;;
32535;SDS011;18974;50.838;4.636;2022-09-30T03:49:22;23.77;;;13.75;;
32535;SDS011;18974;50.838;4.636;2022-09-30T03:51:51;28.75;;;13.82;;
32535;SDS011;18974;50.838;4.636;2022-09-30T03:54:17;24.92;;;15.18;;
32535;SDS011;18974;50.838;4.636;2022-09-30T03:56:43;24.98;;;14.35;;
32535;SDS011;18974;50.838;4.636;2022-09-30T03:59:09;26.63;;;15.57;;
32535;SDS011;18974;50.838;4.636;2022-09-30T04:01:49;29.08;;;15.50;;
32535;SDS011;18974;50.838;4.636;2022-09-30T04:04:15;24.92;;;14.63;;
32535;SDS011;18974;50.838;4.636;2022-09-30T04:06:42;24.35;;;14.02;;
32535;SDS011;18974;50.838;4.636;2022-09-30T04:09:08;25.10;;;14.40;;
32535;SDS011;18974;50.838;4.636;2022-09-30T04:11:33;26.17;;;14.38;;
32535;SDS011;18974;50.838;4.636;2022-09-30T04:13:59;27.60;;;15.32;;
32535;SDS011;18974;50.838;4.636;2022-09-30T04:16:27;24.48;;;13.63;;
32535;SDS011;18974;50.838;4.636;2022-09-30T04:18:53;24.73;;;14.57;;
32535;SDS011;18974;50.838;4.636;2022-09-30T04:21:20;24.77;;;13.93;;
32535;SDS011;18974;50.838;4.636;2022-09-30T04:23:46;27.83;;;14.60;;
32535;SDS011;18974;50.838;4.636;2022-09-30T04:26:13;24.33;;;14.55;;
32535;SDS011;18974;50.838;4.636;2022-09-30T04:28:40;29.27;;;15.40;;
32535;SDS011;18974;50.838;4.636;2022-09-30T04:31:06;28.52;;;15.52;;
32535;SDS011;18974;50.838;4.636;2022-09-30T04:33:33;27.65;;;15.27;;
32535;SDS011;18974;50.838;4.636;2022-09-30T04:35:59;30.42;;;15.45;;
32535;SDS011;18974;50.838;4.636;2022-09-30T04:38:26;30.13;;;15.02;;
32535;SDS011;18974;50.838;4.636;2022-09-30T04:40:52;23.42;;;14.73;;
32535;SDS011;18974;50.838;4.636;2022-09-30T04:43:21;31.30;;;15.50;;
32535;SDS011;18974;50.838;4.636;2022-09-30T04:45:48;27.10;;;15.40;;
32535;SDS011;18974;50.838;4.636;2022-09-30T04:48:14;22.67;;;14.98;;
32535;SDS011;18974;50.838;4.636;2022-09-30T04:50:41;29.05;;;15.45;;
32535;SDS011;18974;50.838;4.636;2022-09-30T04:53:07;24.75;;;13.77;;
32535;SDS011;18974;50.838;4.636;2022-09-30T04:55:34;25.45;;;14.40;;
32535;SDS011;18974;50.838;4.636;2022-09-30T04:58:00;27.52;;;14.85;;
32535;SDS011;18974;50.838;4.636;2022-09-30T05:00:25;25.90;;;14.65;;
32535;SDS011;18974;50.838;4.636;2022-09-30T05:02:51;28.13;;;14.27;;
32535;SDS011;18974;50.838;4.636;2022-09-30T05:05:17;24.98;;;14.57;;
32535;SDS011;18974;50.838;4.636;2022-09-30T05:07:42;25.17;;;14.27;;
32535;SDS011;18974;50.838;4.636;2022-09-30T05:10:08;25.50;;;14.43;;
32535;SDS011;18974;50.838;4.636;2022-09-30T05:12:38;27.08;;;14.95;;
32535;SDS011;18974;50.838;4.636;2022-09-30T05:15:07;28.27;;;14.20;;
32535;SDS011;18974;50.838;4.636;2022-09-30T05:17:34;29.50;;;13.85;;
32535;SDS011;18974;50.838;4.636;2022-09-30T05:20:00;32.38;;;14.85;;
32535;SDS011;18974;50.838;4.636;2022-09-30T05:22:26;27.08;;;14.70;;
32535;SDS011;18974;50.838;4.636;2022-09-30T05:24:52;24.77;;;14.13;;
32535;SDS011;18974;50.838;4.636;2022-09-30T05:27:20;26.20;;;14.10;;
32535;SDS011;18974;50.838;4.636;2022-09-30T05:29:48;23.60;;;14.70;;
32535;SDS011;18974;50.838;4.636;2022-09-30T05:32:14;22.38;;;13.63;;
32535;SDS011;18974;50.838;4.636;2022-09-30T05:34:40;26.23;;;13.80;;
32535;SDS011;18974;50.838;4.636;2022-09-30T05:37:06;29.42;;;13.85;;
32535;SDS011;18974;50.838;4.636;2022-09-30T05:39:33;22.98;;;14.07;;
32535;SDS011;18974;50.838;4.636;2022-09-30T05:42:00;25.55;;;12.73;;
32535;SDS011;18974;50.838;4.636;2022-09-30T05:44:25;21.83;;;13.38;;
32535;SDS011;18974;50.838;4.636;2022-09-30T05:46:51;21.92;;;13.93;;
32535;SDS011;18974;50.838;4.636;2022-09-30T05:49:16;24.77;;;14.00;;
32535;SDS011;18974;50.838;4.636;2022-09-30T05:51:42;27.02;;;13.75;;
32535;SDS011;18974;50.838;4.636;2022-09-30T05:54:10;21.35;;;12.38;;
32535;SDS011;18974;50.838;4.636;2022-09-30T05:56:36;22.60;;;12.93;;
32535;SDS011;18974;50.838;4.636;2022-09-30T05:59:03;28.40;;;12.48;;
32535;SDS011;18974;50.838;4.636;2022-09-30T06:01:29;25.98;;;13.05;;
32535;SDS011;18974;50.838;4.636;2022-09-30T06:03:54;25.83;;;14.27;;
32535;SDS011;18974;50.838;4.636;2022-09-30T06:06:20;25.10;;;13.93;;
32535;SDS011;18974;50.838;4.636;2022-09-30T06:08:46;29.70;;;13.30;;
32535;SDS011;18974;50.838;4.636;2022-09-30T06:11:16;25.27;;;14.20;;
32535;SDS011;18974;50.838;4.636;2022-09-30T06:13:43;26.65;;;13.90;;
32535;SDS011;18974;50.838;4.636;2022-09-30T06:16:11;29.55;;;13.70;;
32535;SDS011;18974;50.838;4.636;2022-09-30T06:18:37;26.17;;;14.50;;
32535;SDS011;18974;50.838;4.636;2022-09-30T06:21:05;33.30;;;15.65;;
32535;SDS011;18974;50.838;4.636;2022-09-30T06:23:32;25.10;;;15.18;;
32535;SDS011;18974;50.838;4.636;2022-09-30T06:25:59;31.80;;;17.08;;
32535;SDS011;18974;50.838;4.636;2022-09-30T06:28:26;38.72;;;17.33;;
32535;SDS011;18974;50.838;4.636;2022-09-30T06:30:52;28.38;;;16.33;;
32535;SDS011;18974;50.838;4.636;2022-09-30T06:33:18;30.45;;;16.80;;
32535;SDS011;18974;50.838;4.636;2022-09-30T06:35:44;30.25;;;17.58;;
32535;SDS011;18974;50.838;4.636;2022-09-30T06:38:11;29.55;;;17.15;;
32535;SDS011;18974;50.838;4.636;2022-09-30T06:40:44;34.20;;;17.25;;
32535;SDS011;18974;50.838;4.636;2022-09-30T06:43:14;29.30;;;17.15;;
32535;SDS011;18974;50.838;4.636;2022-09-30T06:45:41;38.10;;;18.05;;
32535;SDS011;18974;50.838;4.636;2022-09-30T06:48:09;39.03;;;19.33;;
32535;SDS011;18974;50.838;4.636;2022-09-30T06:50:35;38.58;;;20.52;;
32535;SDS011;18974;50.838;4.636;2022-09-30T06:53:02;35.85;;;19.15;;
32535;SDS011;18974;50.838;4.636;2022-09-30T06:55:33;34.85;;;19.20;;
32535;SDS011;18974;50.838;4.636;2022-09-30T06:58:04;36.13;;;20.48;;
32535;SDS011;18974;50.838;4.636;2022-09-30T07:00:35;42.08;;;21.50;;
32535;SDS011;18974;50.838;4.636;2022-09-30T07:03:01;35.63;;;20.88;;
32535;SDS011;18974;50.838;4.636;2022-09-30T07:05:29;38.15;;;20.48;;
32535;SDS011;18974;50.838;4.636;2022-09-30T07:07:56;37.22;;;20.38;;
32535;SDS011;18974;50.838;4.636;2022-09-30T07:10:22;35.67;;;20.50;;
32535;SDS011;18974;50.838;4.636;2022-09-30T07:12:49;38.92;;;22.30;;
32535;SDS011;18974;50.838;4.636;2022-09-30T07:15:16;37.92;;;20.83;;
32535;SDS011;18974;50.838;4.636;2022-09-30T07:17:49;36.38;;;21.30;;
32535;SDS011;18974;50.838;4.636;2022-09-30T07:20:18;41.63;;;21.55;;
32535;SDS011;18974;50.838;4.636;2022-09-30T07:22:44;37.08;;;21.67;;
32535;SDS011;18974;50.838;4.636;2022-09-30T07:25:11;37.22;;;22.08;;
32535;SDS011;18974;50.838;4.636;2022-09-30T07:27:38;37.83;;;21.35;;
32535;SDS011;18974;50.838;4.636;2022-09-30T07:30:04;35.97;;;21.70;;
32535;SDS011;18974;50.838;4.636;2022-09-30T07:32:30;38.60;;;22.77;;
32535;SDS011;18974;50.838;4.636;2022-09-30T07:34:56;45.85;;;23.10;;
32535;SDS011;18974;50.838;4.636;2022-09-30T07:37:22;43.53;;;21.88;;
32535;SDS011;18974;50.838;4.636;2022-09-30T07:39:49;39.70;;;22.38;;
32535;SDS011;18974;50.838;4.636;2022-09-30T07:42:15;45.75;;;23.15;;
32535;SDS011;18974;50.838;4.636;2022-09-30T07:44:46;36.38;;;21.15;;
32535;SDS011;18974;50.838;4.636;2022-09-30T07:47:13;40.28;;;21.85;;
32535;SDS011;18974;50.838;4.636;2022-09-30T07:49:40;40.83;;;22.40;;
32535;SDS011;18974;50.838;4.636;2022-09-30T07:52:06;41.00;;;22.35;;
32535;SDS011;18974;50.838;4.636;2022-09-30T07:54:34;34.60;;;21.13;;
32535;SDS011;18974;50.838;4.636;2022-09-30T07:57:00;36.78;;;21.38;;
32535;SDS011;18974;50.838;4.636;2022-09-30T07:59:29;42.53;;;22.25;;
32535;SDS011;18974;50.838;4.636;2022-09-30T08:01:56;37.47;;;22.65;;
32535;SDS011;18974;50.838;4.636;2022-09-30T08:04:22;38.25;;;22.73;;
32535;SDS011;18974;50.838;4.636;2022-09-30T08:06:52;44.85;;;24.42;;
32535;SDS011;18974;50.838;4.636;2022-09-30T08:09:21;39.42;;;23.15;;
32535;SDS011;18974;50.838;4.636;2022-09-30T08:11:48;40.38;;;22.50;;
32535;SDS011;18974;50.838;4.636;2022-09-30T08:14:15;40.92;;;23.95;;
32535;SDS011;18974;50.838;4.636;2022-09-30T08:16:43;38.88;;;22.30;;
32535;SDS011;18974;50.838;4.636;2022-09-30T08:19:13;45.42;;;24.20;;
32535;SDS011;18974;50.838;4.636;2022-09-30T08:21:40;40.05;;;23.08;;
32535;SDS011;18974;50.838;4.636;2022-09-30T08:24:07;38.25;;;23.75;;
32535;SDS011;18974;50.838;4.636;2022-09-30T08:26:33;42.50;;;23.48;;
32535;SDS011;18974;50.838;4.636;2022-09-30T08:28:59;42.47;;;23.90;;
32535;SDS011;18974;50.838;4.636;2022-09-30T08:31:25;39.47;;;23.85;;
32535;SDS011;18974;50.838;4.636;2022-09-30T08:33:52;35.67;;;22.25;;
32535;SDS011;18974;50.838;4.636;2022-09-30T08:36:19;38.53;;;21.95;;
32535;SDS011;18974;50.838;4.636;2022-09-30T08:38:47;37.83;;;22.83;;
32535;SDS011;18974;50.838;4.636;2022-09-30T08:44:00;37.17;;;21.20;;
32535;SDS011;18974;50.838;4.636;2022-09-30T08:46:53;35.53;;;20.30;;
32535;SDS011;18974;50.838;4.636;2022-09-30T08:52:01;29.80;;;18.80;;
32535;SDS011;18974;50.838;4.636;2022-09-30T08:54:32;31.05;;;17.73;;
32535;SDS011;18974;50.838;4.636;2022-09-30T08:56:59;33.45;;;18.45;;
32535;SDS011;18974;50.838;4.636;2022-09-30T09:01:58;28.63;;;18.27;;
32535;SDS011;18974;50.838;4.636;2022-09-30T09:04:39;26.65;;;16.63;;
32535;SDS011;18974;50.838;4.636;2022-09-30T09:07:09;26.00;;;16.83;;
32535;SDS011;18974;50.838;4.636;2022-09-30T09:18:23;29.48;;;16.80;;
32535;SDS011;18974;50.838;4.636;2022-09-30T09:20:57;27.50;;;15.25;;
32535;SDS011;18974;50.838;4.636;2022-09-30T09:23:27;26.70;;;14.82;;
32535;SDS011;18974;50.838;4.636;2022-09-30T09:25:56;23.63;;;14.93;;
32535;SDS011;18974;50.838;4.636;2022-09-30T09:28:43;21.52;;;12.25;;
32535;SDS011;18974;50.838;4.636;2022-09-30T09:31:16;16.92;;;10.95;;
32535;SDS011;18974;50.838;4.636;2022-09-30T09:33:44;20.85;;;11.23;;
32535;SDS011;18974;50.838;4.636;2022-09-30T09:42:26;17.50;;;10.85;;
32535;SDS011;18974;50.838;4.636;2022-09-30T09:45:10;16.00;;;10.60;;
32535;SDS011;18974;50.838;4.636;2022-09-30T09:47:37;18.15;;;9.70;;
32535;SDS011;18974;50.838;4.636;2022-09-30T09:50:04;20.30;;;9.77;;
32535;SDS011;18974;50.838;4.636;2022-09-30T09:52:43;13.60;;;9.38;;
32535;SDS011;18974;50.838;4.636;2022-09-30T09:55:20;13.50;;;7.82;;
32535;SDS011;18974;50.838;4.636;2022-09-30T09:57:47;11.07;;;6.93;;
32535;SDS011;18974;50.838;4.636;2022-09-30T10:00:28;8.65;;;5.68;;
32535;SDS011;18974;50.838;4.636;2022-09-30T10:03:15;8.57;;;4.88;;
32535;SDS011;18974;50.838;4.636;2022-09-30T10:08:29;4.88;;;3.47;;
32535;SDS011;18974;50.838;4.636;2022-09-30T10:10:58;8.68;;;3.28;;
32535;SDS011;18974;50.838;4.636;2022-09-30T10:15:54;3.92;;;2.65;;
32535;SDS011;18974;50.838;4.636;2022-09-30T10:18:26;5.80;;;2.95;;
32535;SDS011;18974;50.838;4.636;2022-09-30T10:20:55;5.35;;;2.53;;
32535;SDS011;18974;50.838;4.636;2022-09-30T10:23:36;9.63;;;2.33;;
32535;SDS011;18974;50.838;4.636;2022-09-30T10:33:43;4.57;;;2.92;;
32535;SDS011;18974;50.838;4.636;2022-09-30T10:38:47;2.83;;;1.77;;
32535;SDS011;18974;50.838;4.636;2022-09-30T10:41:21;2.78;;;1.52;;
32535;SDS011;18974;50.838;4.636;2022-09-30T10:43:50;5.28;;;2.10;;
32535;SDS011;18974;50.838;4.636;2022-09-30T10:46:37;4.32;;;1.80;;
32535;SDS011;18974;50.838;4.636;2022-09-30T10:51:35;3.60;;;1.48;;
32535;SDS011;18974;50.838;4.636;2022-09-30T10:54:02;3.85;;;1.05;;
32535;SDS011;18974;50.838;4.636;2022-09-30T10:56:40;2.47;;;1.10;;
32535;SDS011;18974;50.838;4.636;2022-09-30T10:59:13;3.90;;;1.30;;
32535;SDS011;18974;50.838;4.636;2022-09-30T11:01:53;2.92;;;1.55;;
32535;SDS011;18974;50.838;4.636;2022-09-30T11:04:26;2.73;;;1.30;;
32535;SDS011;18974;50.838;4.636;2022-09-30T11:06:59;2.25;;;1.25;;
32535;SDS011;18974;50.838;4.636;2022-09-30T11:09:52;2.42;;;1.15;;
32535;SDS011;18974;50.838;4.636;2022-09-30T11:12:44;1.75;;;0.98;;
32535;SDS011;18974;50.838;4.636;2022-09-30T11:15:18;2.50;;;1.30;;
32535;SDS011;18974;50.838;4.636;2022-09-30T11:18:40;1.73;;;1.20;;
32535;SDS011;18974;50.838;4.636;2022-09-30T11:20:49;3.83;;;1.50;;
32535;SDS011;18974;50.838;4.636;2022-09-30T11:25:57;5.15;;;2.08;;
32535;SDS011;18974;50.838;4.636;2022-09-30T11:40:07;7.28;;;2.60;;
32535;SDS011;18974;50.838;4.636;2022-09-30T11:51:34;9.43;;;4.00;;
32535;SDS011;18974;50.838;4.636;2022-09-30T11:54:31;10.55;;;4.88;;
32535;SDS011;18974;50.838;4.636;2022-09-30T11:57:10;9.13;;;4.22;;
32535;SDS011;18974;50.838;4.636;2022-09-30T12:00:04;10.40;;;3.88;;
32535;SDS011;18974;50.838;4.636;2022-09-30T12:02:42;8.63;;;4.18;;
32535;SDS011;18974;50.838;4.636;2022-09-30T12:05:21;10.13;;;3.22;;
32535;SDS011;18974;50.838;4.636;2022-09-30T12:07:54;9.45;;;3.60;;
32535;SDS011;18974;50.838;4.636;2022-09-30T12:10:29;6.75;;;2.85;;
32535;SDS011;18974;50.838;4.636;2022-09-30T12:13:03;9.55;;;3.33;;
32535;SDS011;18974;50.838;4.636;2022-09-30T12:15:41;8.18;;;3.25;;
32535;SDS011;18974;50.838;4.636;2022-09-30T12:18:10;6.88;;;3.75;;
32535;SDS011;18974;50.838;4.636;2022-09-30T12:20:45;9.25;;;4.32;;
32535;SDS011;18974;50.838;4.636;2022-09-30T12:26:03;6.10;;;3.22;;
32535;SDS011;18974;50.838;4.636;2022-09-30T12:40:16;3.80;;;2.35;;
32535;SDS011;18974;50.838;4.636;2022-09-30T12:49:04;5.22;;;2.85;;
32535;SDS011;18974;50.838;4.636;2022-09-30T12:51:35;8.60;;;3.50;;
32535;SDS011;18974;50.838;4.636;2022-09-30T12:56:40;5.28;;;2.63;;
32535;SDS011;18974;50.838;4.636;2022-09-30T12:59:08;5.55;;;2.80;;
32535;SDS011;18974;50.838;4.636;2022-09-30T13:01:35;6.22;;;2.90;;
32535;SDS011;18974;50.838;4.636;2022-09-30T13:07:10;9.88;;;3.45;;
32535;SDS011;18974;50.838;4.636;2022-09-30T13:09:33;6.53;;;2.75;;
32535;SDS011;18974;50.838;4.636;2022-09-30T13:32:44;8.45;;;3.55;;
32535;SDS011;18974;50.838;4.636;2022-09-30T13:35:29;3.80;;;1.90;;
32535;SDS011;18974;50.838;4.636;2022-09-30T13:43:21;3.88;;;2.47;;
32535;SDS011;18974;50.838;4.636;2022-09-30T13:46:10;4.43;;;2.20;;
32535;SDS011;18974;50.838;4.636;2022-09-30T13:48:47;3.78;;;1.83;;
32535;SDS011;18974;50.838;4.636;2022-09-30T13:51:17;3.40;;;2.05;;
32535;SDS011;18974;50.838;4.636;2022-09-30T13:53:49;4.13;;;1.80;;
32535;SDS011;18974;50.838;4.636;2022-09-30T14:07:31;3.80;;;1.40;;
32535;SDS011;18974;50.838;4.636;2022-09-30T14:18:46;2.75;;;1.63;;
32535;SDS011;18974;50.838;4.636;2022-09-30T14:24:10;4.70;;;1.95;;
32535;SDS011;18974;50.838;4.636;2022-09-30T14:31:44;3.78;;;1.95;;
32535;SDS011;18974;50.838;4.636;2022-09-30T14:34:11;5.85;;;1.83;;
32535;SDS011;18974;50.838;4.636;2022-09-30T14:36:38;2.75;;;1.60;;
32535;SDS011;18974;50.838;4.636;2022-09-30T14:39:05;3.45;;;2.45;;
32535;SDS011;18974;50.838;4.636;2022-09-30T14:41:39;3.55;;;2.13;;
32535;SDS011;18974;50.838;4.636;2022-09-30T14:44:13;2.33;;;1.60;;
32535;SDS011;18974;50.838;4.636;2022-09-30T14:46:42;2.38;;;1.90;;
32535;SDS011;18974;50.838;4.636;2022-09-30T14:49:13;2.88;;;2.00;;
32535;SDS011;18974;50.838;4.636;2022-09-30T14:51:43;3.08;;;1.60;;
32535;SDS011;18974;50.838;4.636;2022-09-30T14:54:23;5.88;;;1.70;;
32535;SDS011;18974;50.838;4.636;2022-09-30T14:56:52;5.68;;;1.77;;
32535;SDS011;18974;50.838;4.636;2022-09-30T14:59:26;4.57;;;2.95;;
32535;SDS011;18974;50.838;4.636;2022-09-30T15:02:09;4.00;;;2.10;;
32535;SDS011;18974;50.838;4.636;2022-09-30T15:04:40;3.58;;;2.15;;
32535;SDS011;18974;50.838;4.636;2022-09-30T15:07:16;3.05;;;1.95;;
32535;SDS011;18974;50.838;4.636;2022-09-30T15:09:43;2.65;;;1.90;;
32535;SDS011;18974;50.838;4.636;2022-09-30T15:12:14;3.63;;;2.30;;
32535;SDS011;18974;50.838;4.636;2022-09-30T15:14:49;5.25;;;2.13;;
32535;SDS011;18974;50.838;4.636;2022-09-30T15:17:23;3.03;;;2.15;;
32535;SDS011;18974;50.838;4.636;2022-09-30T15:19:54;3.17;;;2.15;;
32535;SDS011;18974;50.838;4.636;2022-09-30T15:22:22;2.60;;;1.90;;
32535;SDS011;18974;50.838;4.636;2022-09-30T15:24:50;4.55;;;1.80;;
32535;SDS011;18974;50.838;4.636;2022-09-30T15:29:58;5.13;;;2.30;;
32535;SDS011;18974;50.838;4.636;2022-09-30T15:32:29;4.60;;;2.28;;
32535;SDS011;18974;50.838;4.636;2022-09-30T15:35:05;4.28;;;1.90;;
32535;SDS011;18974;50.838;4.636;2022-09-30T15:37:32;2.38;;;1.73;;
32535;SDS011;18974;50.838;4.636;2022-09-30T15:39:58;4.32;;;1.80;;
32535;SDS011;18974;50.838;4.636;2022-09-30T15:45:35;2.30;;;1.80;;
32535;SDS011;18974;50.838;4.636;2022-09-30T15:48:46;3.08;;;1.90;;
32535;SDS011;18974;50.838;4.636;2022-09-30T15:50:58;7.18;;;2.30;;
32535;SDS011;18974;50.838;4.636;2022-09-30T15:53:28;3.58;;;1.98;;
32535;SDS011;18974;50.838;4.636;2022-09-30T15:55:55;3.20;;;1.75;;
32535;SDS011;18974;50.838;4.636;2022-09-30T15:58:39;3.58;;;2.03;;
32535;SDS011;18974;50.838;4.636;2022-09-30T16:09:05;5.25;;;2.25;;
32535;SDS011;18974;50.838;4.636;2022-09-30T16:11:47;3.30;;;2.17;;
32535;SDS011;18974;50.838;4.636;2022-09-30T16:14:25;3.58;;;1.90;;
32535;SDS011;18974;50.838;4.636;2022-09-30T16:16:54;5.78;;;2.50;;
32535;SDS011;18974;50.838;4.636;2022-09-30T16:19:22;4.35;;;2.55;;
32535;SDS011;18974;50.838;4.636;2022-09-30T16:21:50;3.38;;;2.10;;
32535;SDS011;18974;50.838;4.636;2022-09-30T16:26:50;5.28;;;2.40;;
32535;SDS011;18974;50.838;4.636;2022-09-30T16:29:18;4.60;;;2.25;;
32535;SDS011;18974;50.838;4.636;2022-09-30T16:31:44;3.35;;;2.25;;
32535;SDS011;18974;50.838;4.636;2022-09-30T16:34:17;5.72;;;2.38;;
32535;SDS011;18974;50.838;4.636;2022-09-30T16:36:46;6.50;;;2.20;;
32535;SDS011;18974;50.838;4.636;2022-09-30T16:39:12;3.45;;;1.77;;
32535;SDS011;18974;50.838;4.636;2022-09-30T16:41:39;3.85;;;2.40;;
32535;SDS011;18974;50.838;4.636;2022-09-30T16:44:05;5.90;;;2.60;;
32535;SDS011;18974;50.838;4.636;2022-09-30T16:46:31;4.00;;;2.60;;
32535;SDS011;18974;50.838;4.636;2022-09-30T16:48:57;4.22;;;2.25;;
32535;SDS011;18974;50.838;4.636;2022-09-30T16:51:23;3.63;;;2.53;;
32535;SDS011;18974;50.838;4.636;2022-09-30T16:53:49;4.22;;;2.33;;
32535;SDS011;18974;50.838;4.636;2022-09-30T16:56:17;5.30;;;2.80;;
32535;SDS011;18974;50.838;4.636;2022-09-30T16:58:44;5.75;;;2.97;;
32535;SDS011;18974;50.838;4.636;2022-09-30T17:01:20;7.90;;;3.67;;
32535;SDS011;18974;50.838;4.636;2022-09-30T17:03:47;4.45;;;2.50;;
32535;SDS011;18974;50.838;4.636;2022-09-30T17:06:14;7.15;;;2.63;;
32535;SDS011;18974;50.838;4.636;2022-09-30T17:08:41;3.60;;;2.30;;
32535;SDS011;18974;50.838;4.636;2022-09-30T17:11:07;8.48;;;3.38;;
32535;SDS011;18974;50.838;4.636;2022-09-30T17:13:34;4.10;;;2.47;;
32535;SDS011;18974;50.838;4.636;2022-09-30T17:16:00;3.63;;;2.45;;
32535;SDS011;18974;50.838;4.636;2022-09-30T17:18:26;6.03;;;2.85;;
32535;SDS011;18974;50.838;4.636;2022-09-30T17:20:52;2.33;;;1.88;;
32535;SDS011;18974;50.838;4.636;2022-09-30T17:23:19;8.07;;;2.92;;
32535;SDS011;18974;50.838;4.636;2022-09-30T17:25:46;6.18;;;2.90;;
32535;SDS011;18974;50.838;4.636;2022-09-30T17:28:12;5.75;;;2.75;;
32535;SDS011;18974;50.838;4.636;2022-09-30T17:30:38;4.25;;;2.38;;
32535;SDS011;18974;50.838;4.636;2022-09-30T17:33:05;6.25;;;2.80;;
32535;SDS011;18974;50.838;4.636;2022-09-30T17:35:34;6.03;;;2.78;;
32535;SDS011;18974;50.838;4.636;2022-09-30T17:38:06;4.75;;;2.35;;
32535;SDS011;18974;50.838;4.636;2022-09-30T17:40:33;4.30;;;2.58;;
32535;SDS011;18974;50.838;4.636;2022-09-30T17:43:17;3.33;;;2.20;;
32535;SDS011;18974;50.838;4.636;2022-09-30T17:45:44;3.83;;;2.17;;
32535;SDS011;18974;50.838;4.636;2022-09-30T17:48:11;5.22;;;2.15;;
32535;SDS011;18974;50.838;4.636;2022-09-30T17:50:38;4.68;;;2.90;;
32535;SDS011;18974;50.838;4.636;2022-09-30T17:53:08;5.13;;;2.75;;
32535;SDS011;18974;50.838;4.636;2022-09-30T17:55:39;4.13;;;2.40;;
32535;SDS011;18974;50.838;4.636;2022-09-30T17:58:06;3.13;;;2.50;;
32535;SDS011;18974;50.838;4.636;2022-09-30T18:00:33;4.18;;;2.47;;
32535;SDS011;18974;50.838;4.636;2022-09-30T18:03:00;7.38;;;2.38;;
32535;SDS011;18974;50.838;4.636;2022-09-30T18:05:27;5.95;;;2.28;;
32535;SDS011;18974;50.838;4.636;2022-09-30T18:07:53;3.45;;;2.15;;
32535;SDS011;18974;50.838;4.636;2022-09-30T18:10:21;4.20;;;2.25;;
32535;SDS011;18974;50.838;4.636;2022-09-30T18:12:47;7.38;;;1.90;;
32535;SDS011;18974;50.838;4.636;2022-09-30T18:15:16;5.22;;;2.20;;
32535;SDS011;18974;50.838;4.636;2022-09-30T18:17:42;5.05;;;2.28;;
32535;SDS011;18974;50.838;4.636;2022-09-30T18:20:09;5.13;;;2.28;;
32535;SDS011;18974;50.838;4.636;2022-09-30T18:22:36;4.40;;;2.45;;
32535;SDS011;18974;50.838;4.636;2022-09-30T18:25:03;4.13;;;2.35;;
32535;SDS011;18974;50.838;4.636;2022-09-30T18:27:44;4.38;;;2.13;;
32535;SDS011;18974;50.838;4.636;2022-09-30T18:30:17;2.83;;;2.45;;
32535;SDS011;18974;50.838;4.636;2022-09-30T18:32:45;6.63;;;2.55;;
32535;SDS011;18974;50.838;4.636;2022-09-30T18:35:12;6.57;;;2.53;;